createdAt,value
2019-04-23T00:00:25.027Z,17.70
2019-04-23T00:02:04.229Z,17.80
2019-04-23T00:03:35.735Z,17.80
2019-04-23T00:05:08.375Z,17.70
2019-04-23T00:06:47.748Z,17.70
2019-04-23T00:09:57.147Z,17.70
2019-04-23T00:11:35.617Z,17.70
2019-04-23T00:12:59.293Z,17.70
2019-04-23T00:14:46.011Z,17.70
2019-04-23T00:16:16.611Z,17.70
2019-04-23T00:18:10.124Z,17.70
2019-04-23T00:19:18.155Z,17.70
2019-04-23T00:20:59.322Z,17.60
2019-04-23T00:22:34.781Z,17.60
2019-04-23T00:27:26.570Z,17.60
2019-04-23T00:28:50.409Z,17.60
2019-04-23T00:30:20.258Z,17.50
2019-04-23T00:31:51.243Z,17.50
2019-04-23T00:33:25.117Z,17.50
2019-04-23T00:35:06.355Z,17.50
2019-04-23T00:38:16.338Z,17.40
2019-04-23T00:39:48.134Z,17.40
2019-04-23T00:41:20.882Z,17.40
2019-04-23T00:43:09.021Z,17.40
2019-04-23T00:44:38.118Z,17.40
2019-04-23T00:45:55.016Z,17.40
2019-04-23T00:49:12.097Z,17.30
2019-04-23T00:52:23.709Z,17.30
2019-04-23T00:53:51.347Z,17.30
2019-04-23T00:55:22.806Z,17.20
2019-04-23T00:57:02.605Z,17.20
2019-04-23T00:58:38.027Z,17.20
2019-04-23T01:03:17.130Z,17.20
2019-04-23T01:04:55.857Z,17.20
2019-04-23T01:06:24.165Z,17.10
2019-04-23T01:07:58.391Z,17.10
2019-04-23T01:09:39.021Z,17.10
2019-04-23T01:12:46.707Z,17.20
2019-04-23T01:14:13.742Z,17.20
2019-04-23T01:15:57.750Z,17.10
2019-04-23T01:18:54.181Z,17.10
2019-04-23T01:20:39.060Z,17.10
2019-04-23T01:21:45.449Z,17.10
2019-04-23T01:23:20.644Z,17.10
2019-04-23T01:24:52.985Z,17.10
2019-04-23T01:26:58.263Z,17.10
2019-04-23T01:28:36.810Z,17.10
2019-04-23T01:31:39.510Z,17.10
2019-04-23T01:33:10.497Z,17.00
2019-04-23T01:34:54.191Z,17.00
2019-04-23T01:36:21.749Z,17.00
2019-04-23T01:37:46.688Z,17.10
2019-04-23T01:39:22.799Z,17.00
2019-04-23T01:40:57.657Z,17.10
2019-04-23T01:42:44.994Z,17.00
2019-04-23T01:44:07.052Z,17.00
2019-04-23T01:45:58.369Z,17.00
2019-04-23T01:47:18.691Z,17.00
2019-04-23T01:48:54.637Z,17.00
2019-04-23T01:52:00.283Z,17.00
2019-04-23T01:53:36.932Z,17.00
2019-04-23T01:55:09.966Z,17.00
2019-04-23T01:56:40.086Z,16.90
2019-04-23T01:58:36.559Z,16.90
2019-04-23T01:59:58.801Z,16.90
2019-04-23T02:01:25.783Z,16.90
2019-04-23T02:04:28.661Z,16.90
2019-04-23T02:06:10.165Z,16.80
2019-04-23T02:07:44.099Z,16.80
2019-04-23T02:09:13.776Z,16.80
2019-04-23T02:10:52.356Z,16.80
2019-04-23T02:12:28.603Z,16.80
2019-04-23T02:13:55.354Z,16.70
2019-04-23T02:15:29.720Z,16.80
2019-04-23T02:17:01.222Z,16.70
2019-04-23T02:18:36.056Z,16.70
2019-04-23T02:20:17.806Z,16.70
2019-04-23T02:21:56.480Z,16.70
2019-04-23T02:25:05.086Z,16.60
2019-04-23T02:26:32.121Z,16.60
2019-04-23T02:28:06.129Z,16.60
2019-04-23T02:29:55.727Z,16.60
2019-04-23T02:33:08.367Z,16.60
2019-04-23T02:34:41.015Z,16.60
2019-04-23T02:36:08.097Z,16.60
2019-04-23T02:37:45.970Z,16.50
2019-04-23T02:39:22.609Z,16.50
2019-04-23T02:43:56.285Z,16.50
2019-04-23T02:45:30.024Z,16.50
2019-04-23T02:47:17.424Z,16.40
2019-04-23T02:51:43.390Z,16.40
2019-04-23T02:56:30.630Z,16.40
2019-04-23T02:59:42.292Z,16.30
2019-04-23T03:08:54.850Z,16.30
2019-04-23T03:10:31.312Z,16.30
2019-04-23T03:12:06.525Z,16.30
2019-04-23T03:13:48.406Z,16.30
2019-04-23T03:15:21.356Z,16.30
2019-04-23T03:19:59.095Z,16.20
2019-04-23T03:21:32.829Z,16.20
2019-04-23T03:26:26.345Z,16.20
2019-04-23T03:37:19.739Z,16.10
2019-04-23T03:38:48.495Z,16.10
2019-04-23T03:41:54.823Z,16.00
2019-04-23T03:43:34.089Z,16.00
2019-04-23T03:45:10.092Z,16.00
2019-04-23T03:48:16.873Z,16.00
2019-04-23T03:49:48.673Z,16.00
2019-04-23T03:51:18.644Z,16.00
2019-04-23T03:53:03.343Z,16.00
2019-04-23T03:56:07.948Z,16.00
2019-04-23T03:59:12.567Z,15.90
2019-04-23T04:00:47.315Z,15.90
2019-04-23T04:07:15.163Z,15.90
2019-04-23T04:08:29.198Z,15.90
2019-04-23T04:10:00.221Z,15.90
2019-04-23T04:11:27.171Z,15.90
2019-04-23T04:13:15.854Z,15.90
2019-04-23T04:18:13.921Z,15.90
2019-04-23T04:19:44.869Z,15.90
2019-04-23T04:21:11.804Z,15.90
2019-04-23T04:25:51.583Z,15.80
2019-04-23T04:29:19.071Z,15.80
2019-04-23T04:30:38.456Z,15.80
2019-04-23T04:32:00.324Z,15.80
2019-04-23T04:33:49.049Z,15.80
2019-04-23T04:37:11.678Z,15.80
2019-04-23T04:43:16.043Z,15.80
2019-04-23T04:44:42.761Z,15.80
2019-04-23T04:46:21.240Z,15.80
2019-04-23T04:47:44.543Z,15.80
2019-04-23T04:49:20.089Z,15.80
2019-04-23T04:51:00.170Z,15.80
2019-04-23T04:55:42.235Z,15.80
2019-04-23T04:58:46.968Z,15.80
2019-04-23T05:00:30.209Z,15.80
2019-04-23T05:02:01.620Z,15.80
2019-04-23T05:03:23.910Z,15.80
2019-04-23T05:05:37.990Z,15.80
2019-04-23T05:06:43.854Z,15.80
2019-04-23T05:09:48.156Z,15.80
2019-04-23T05:11:28.224Z,15.80
2019-04-23T05:12:45.218Z,15.80
2019-04-23T05:14:35.415Z,15.80
2019-04-23T05:15:58.248Z,15.80
2019-04-23T05:17:42.327Z,15.90
2019-04-23T05:19:20.351Z,15.80
2019-04-23T05:20:43.081Z,15.90
2019-04-23T05:22:16.706Z,15.90
2019-04-23T05:23:50.340Z,15.90
2019-04-23T05:25:17.961Z,15.90
2019-04-23T05:26:55.603Z,15.90
2019-04-23T05:28:32.997Z,15.90
2019-04-23T05:30:07.872Z,15.90
2019-04-23T05:31:32.549Z,15.90
2019-04-23T05:33:12.928Z,15.90
2019-04-23T05:34:41.471Z,15.90
2019-04-23T05:36:33.866Z,15.90
2019-04-23T05:39:30.955Z,15.90
2019-04-23T05:42:44.501Z,15.90
2019-04-23T05:45:42.639Z,15.90
2019-04-23T05:47:20.362Z,15.90
2019-04-23T05:48:54.405Z,15.90
2019-04-23T05:50:35.791Z,15.90
2019-04-23T05:53:40.874Z,15.90
2019-04-23T05:55:07.574Z,15.90
2019-04-23T05:56:54.209Z,15.90
2019-04-23T05:58:26.744Z,15.90
2019-04-23T05:59:46.943Z,15.90
2019-04-23T06:03:04.706Z,16.00
2019-04-23T06:04:35.762Z,16.00
2019-04-23T06:06:14.410Z,16.00
2019-04-23T06:07:42.727Z,16.00
2019-04-23T06:10:55.516Z,16.00
2019-04-23T06:12:21.412Z,16.10
2019-04-23T06:15:32.417Z,16.20
2019-04-23T06:17:09.358Z,16.10
2019-04-23T06:18:44.733Z,16.20
2019-04-23T06:20:21.284Z,16.20
2019-04-23T06:23:29.045Z,16.30
2019-04-23T06:26:45.481Z,16.30
2019-04-23T06:28:09.363Z,16.30
2019-04-23T06:29:51.528Z,16.30
2019-04-23T06:31:18.187Z,16.40
2019-04-23T06:32:46.460Z,16.40
2019-04-23T06:34:26.542Z,16.40
2019-04-23T06:36:03.437Z,16.40
2019-04-23T06:37:38.588Z,16.40
2019-04-23T06:40:35.839Z,16.50
2019-04-23T06:42:08.063Z,16.50
2019-04-23T06:43:54.689Z,16.50
2019-04-23T06:45:17.552Z,16.60
2019-04-23T06:47:02.103Z,16.60
2019-04-23T06:48:30.705Z,16.70
2019-04-23T06:50:00.109Z,16.70
2019-04-23T06:51:46.512Z,16.70
2019-04-23T06:53:10.138Z,16.70
2019-04-23T06:54:51.012Z,16.70
2019-04-23T06:56:23.391Z,16.70
2019-04-23T06:57:55.272Z,16.80
2019-04-23T06:59:28.883Z,16.80
2019-04-23T07:01:01.976Z,16.80
2019-04-23T07:02:32.345Z,16.80
2019-04-23T07:04:10.636Z,16.80
2019-04-23T07:05:57.858Z,16.90
2019-04-23T07:07:37.963Z,16.90
2019-04-23T07:10:30.145Z,16.90
2019-04-23T07:11:59.055Z,17.00
2019-04-23T07:13:44.914Z,17.00
2019-04-23T07:15:33.566Z,17.00
2019-04-23T07:16:39.945Z,17.10
2019-04-23T07:18:16.327Z,17.10
2019-04-23T07:19:53.513Z,17.10
2019-04-23T07:22:56.940Z,17.20
2019-04-23T07:24:27.759Z,17.20
2019-04-23T07:26:17.541Z,17.20
2019-04-23T07:27:37.827Z,17.20
2019-04-23T07:29:15.335Z,17.30
2019-04-23T07:30:52.143Z,17.30
2019-04-23T07:32:15.145Z,17.30
2019-04-23T07:34:10.130Z,17.40
2019-04-23T07:35:39.805Z,17.40
2019-04-23T07:37:05.149Z,17.40
2019-04-23T07:38:48.181Z,17.50
2019-04-23T07:40:23.724Z,17.50
2019-04-23T07:43:22.461Z,17.60
2019-04-23T07:44:56.417Z,17.60
2019-04-23T07:46:36.649Z,17.60
2019-04-23T07:48:13.714Z,17.60
2019-04-23T07:49:43.309Z,17.70
2019-04-23T07:51:06.179Z,17.70
2019-04-23T07:52:51.499Z,17.70
2019-04-23T07:54:25.778Z,17.80
2019-04-23T07:55:56.480Z,17.80
2019-04-23T07:57:43.297Z,17.90
2019-04-23T07:59:07.406Z,17.90
2019-04-23T08:00:41.375Z,17.90
2019-04-23T08:02:16.362Z,18.00
2019-04-23T08:03:43.446Z,18.00
2019-04-23T08:05:22.619Z,18.10
2019-04-23T08:06:52.091Z,18.10
2019-04-23T08:08:24.584Z,18.20
2019-04-23T08:10:02.304Z,18.20
2019-04-23T08:11:39.951Z,18.30
2019-04-23T08:14:46.967Z,18.40
2019-04-23T08:17:51.116Z,18.50
2019-04-23T08:19:34.992Z,18.60
2019-04-23T08:21:08.387Z,18.60
2019-04-23T08:22:35.111Z,18.70
2019-04-23T08:24:08.751Z,18.70
2019-04-23T08:25:47.138Z,18.80
2019-04-23T08:27:10.052Z,18.80
2019-04-23T08:28:58.418Z,18.90
2019-04-23T08:30:17.456Z,18.90
2019-04-23T08:32:05.407Z,18.90
2019-04-23T08:33:32.216Z,19.00
2019-04-23T08:36:42.019Z,19.10
2019-04-23T08:38:20.978Z,19.10
2019-04-23T08:41:32.105Z,19.20
2019-04-23T08:43:00.679Z,19.20
2019-04-23T08:44:39.581Z,19.20
2019-04-23T08:46:05.940Z,19.20
2019-04-23T08:48:00.733Z,19.20
2019-04-23T08:50:54.697Z,19.30
2019-04-23T08:52:25.620Z,19.30
2019-04-23T08:54:00.540Z,19.30
2019-04-23T08:55:38.442Z,19.40
2019-04-23T08:58:34.020Z,19.50
2019-04-23T09:00:07.786Z,19.50
2019-04-23T09:01:58.046Z,19.50
2019-04-23T09:06:47.273Z,19.60
2019-04-23T09:08:07.235Z,19.60
2019-04-23T09:09:45.426Z,19.70
2019-04-23T09:12:45.859Z,19.70
2019-04-23T09:14:10.308Z,19.80
2019-04-23T09:19:12.695Z,19.80
2019-04-23T09:20:41.372Z,19.90
2019-04-23T09:22:14.223Z,19.90
2019-04-23T09:23:46.870Z,20.00
2019-04-23T09:25:37.642Z,20.00
2019-04-23T09:26:50.498Z,20.00
2019-04-23T09:28:33.207Z,20.10
2019-04-23T09:30:07.653Z,20.20
2019-04-23T09:33:14.031Z,20.20
2019-04-23T09:34:43.152Z,20.30
2019-04-23T09:39:28.979Z,20.50
2019-04-23T09:41:09.876Z,20.50
2019-04-23T09:42:41.361Z,20.60
2019-04-23T09:44:39.872Z,20.70
2019-04-23T09:45:46.132Z,20.70
2019-04-23T09:52:02.445Z,20.90
2019-04-23T09:55:18.462Z,21.00
2019-04-23T09:56:41.200Z,21.10
2019-04-23T09:58:21.856Z,21.20
2019-04-23T09:59:49.050Z,21.20
2019-04-23T10:01:21.709Z,21.20
2019-04-23T10:02:49.940Z,21.30
2019-04-23T10:04:17.529Z,21.30
2019-04-23T10:05:49.058Z,21.40
2019-04-23T10:07:24.649Z,21.50
2019-04-23T10:08:52.195Z,21.50
2019-04-23T10:10:20.685Z,21.50
2019-04-23T10:11:53.413Z,21.60
2019-04-23T10:13:26.169Z,21.70
2019-04-23T10:15:08.317Z,21.70
2019-04-23T10:16:34.333Z,21.70
2019-04-23T10:18:07.872Z,21.80
2019-04-23T10:19:40.725Z,21.80
2019-04-23T10:21:13.279Z,21.90
2019-04-23T10:22:46.246Z,21.90
2019-04-23T10:24:19.173Z,21.90
2019-04-23T10:25:52.267Z,22.00
2019-04-23T10:27:25.169Z,22.00
2019-04-23T10:28:58.197Z,22.00
2019-04-23T10:30:31.214Z,22.10
2019-04-23T10:32:03.930Z,22.10
2019-04-23T10:33:38.138Z,22.20
2019-04-23T10:35:22.167Z,22.20
2019-04-23T10:36:44.601Z,22.30
2019-04-23T10:38:20.235Z,22.30
2019-04-23T10:39:58.193Z,22.40
2019-04-23T10:41:25.758Z,22.50
2019-04-23T10:43:01.301Z,22.50
2019-04-23T10:44:32.961Z,22.60
2019-04-23T10:46:27.210Z,22.70
2019-04-23T10:48:12.217Z,22.80
2019-04-23T10:51:24.907Z,22.90
2019-04-23T10:52:47.204Z,23.00
2019-04-23T10:57:24.839Z,23.20
2019-04-23T10:59:11.981Z,23.20
2019-04-23T11:00:46.111Z,23.30
2019-04-23T11:05:29.145Z,23.30
2019-04-23T11:07:17.095Z,23.40
2019-04-23T11:08:30.936Z,23.40
2019-04-23T11:11:48.412Z,23.50
2019-04-23T11:13:21.359Z,23.60
2019-04-23T11:14:53.412Z,23.60
2019-04-23T11:16:52.248Z,23.70
2019-04-23T11:19:41.314Z,23.80
2019-04-23T11:21:14.875Z,23.90
2019-04-23T11:22:46.498Z,24.00
2019-04-23T11:24:20.777Z,24.00
2019-04-23T11:25:42.812Z,24.10
2019-04-23T11:27:22.327Z,24.10
2019-04-23T11:28:53.637Z,24.20
2019-04-23T11:30:33.110Z,24.30
2019-04-23T11:32:22.052Z,24.30
2019-04-23T11:33:37.950Z,24.40
2019-04-23T11:38:48.609Z,24.50
2019-04-23T11:41:34.877Z,24.50
2019-04-23T11:43:20.965Z,24.60
2019-04-23T11:46:34.036Z,24.70
2019-04-23T11:50:59.849Z,24.70
2019-04-23T11:51:26.577Z,24.80
2019-04-23T11:52:35.568Z,24.80
2019-04-23T11:54:02.819Z,24.80
2019-04-23T11:55:49.418Z,24.80
2019-04-23T12:00:28.498Z,25.00
2019-04-23T12:01:53.159Z,25.00
2019-04-23T12:03:26.988Z,25.10
2019-04-23T12:05:16.715Z,25.10
2019-04-23T12:06:30.177Z,25.20
2019-04-23T12:08:20.594Z,25.20
2019-04-23T12:09:48.984Z,25.30
2019-04-23T12:12:47.807Z,25.30
2019-04-23T12:16:04.519Z,25.40
2019-04-23T12:19:40.990Z,25.60
2019-04-23T12:20:36.105Z,25.60
2019-04-23T12:23:54.514Z,25.80
2019-04-23T12:27:01.158Z,25.90
2019-04-23T12:30:08.923Z,26.00
2019-04-23T12:31:40.002Z,26.10
2019-04-23T12:36:29.258Z,26.10
2019-04-23T12:37:55.492Z,26.10
2019-04-23T12:39:32.926Z,26.10
2019-04-23T12:41:05.058Z,26.10
2019-04-23T12:44:19.430Z,26.10
2019-04-23T12:45:44.326Z,26.20
2019-04-23T12:47:40.306Z,26.30
2019-04-23T12:49:10.720Z,26.40
2019-04-23T12:52:02.448Z,26.60
2019-04-23T12:56:56.874Z,27.10
2019-04-23T12:58:22.208Z,27.30
2019-04-23T13:00:01.549Z,27.50
2019-04-23T13:01:39.753Z,27.80
2019-04-23T13:02:56.870Z,28.10
2019-04-23T13:04:42.097Z,28.30
2019-04-23T13:06:13.696Z,28.70
2019-04-23T13:09:33.008Z,29.00
2019-04-23T13:12:36.221Z,29.40
2019-04-23T13:14:00.818Z,29.60
2019-04-23T13:15:34.728Z,29.90
2019-04-23T13:18:46.703Z,30.10
2019-04-23T13:20:18.829Z,30.10
2019-04-23T13:22:00.220Z,29.90
2019-04-23T13:25:04.640Z,29.80
2019-04-23T13:26:31.188Z,29.80
2019-04-23T13:28:06.479Z,29.70
2019-04-23T13:29:42.944Z,29.70
2019-04-23T13:31:14.984Z,29.70
2019-04-23T13:32:56.007Z,29.60
2019-04-23T13:34:34.782Z,29.50
2019-04-23T13:37:40.353Z,29.20
2019-04-23T13:39:10.222Z,29.10
2019-04-23T13:42:24.306Z,28.80
2019-04-23T13:47:10.655Z,28.50
2019-04-23T13:48:32.917Z,28.50
2019-04-23T13:50:20.248Z,28.40
2019-04-23T13:51:46.611Z,28.50
2019-04-23T13:53:36.918Z,28.50
2019-04-23T13:55:04.511Z,28.60
2019-04-23T13:59:45.120Z,28.60
2019-04-23T14:01:30.825Z,28.70
2019-04-23T14:02:54.750Z,28.70
2019-04-23T14:04:41.712Z,28.70
2019-04-23T14:07:48.546Z,28.60
2019-04-23T14:09:20.189Z,28.60
2019-04-23T14:12:32.017Z,28.50
2019-04-23T14:14:08.517Z,28.50
2019-04-23T14:15:42.591Z,28.50
2019-04-23T14:17:16.704Z,28.50
2019-04-23T14:18:55.933Z,28.50
2019-04-23T14:20:19.015Z,28.50
2019-04-23T14:21:51.820Z,28.50
2019-04-23T14:23:39.687Z,28.50
2019-04-23T14:25:10.258Z,28.50
2019-04-23T14:27:00.261Z,28.50
2019-04-23T14:29:48.571Z,28.50
2019-04-23T14:31:28.537Z,28.50
2019-04-23T14:32:54.352Z,28.40
2019-04-23T14:34:25.437Z,28.40
2019-04-23T14:36:00.207Z,28.40
2019-04-23T14:37:46.992Z,28.30
2019-04-23T14:39:06.449Z,28.30
2019-04-23T14:41:03.296Z,28.20
2019-04-23T14:43:56.128Z,28.00
2019-04-23T14:48:28.721Z,27.60
2019-04-23T14:50:28.246Z,27.60
2019-04-23T14:51:46.835Z,27.40
2019-04-23T14:53:18.207Z,27.30
2019-04-23T14:55:31.552Z,27.20
2019-04-23T14:56:42.128Z,27.10
2019-04-23T14:59:24.193Z,26.90
2019-04-23T15:02:44.772Z,26.80
2019-04-23T15:04:11.471Z,26.70
2019-04-23T15:06:04.904Z,26.60
2019-04-23T15:09:12.795Z,26.60
2019-04-23T15:10:41.314Z,26.50
2019-04-23T15:12:20.832Z,26.50
2019-04-23T15:13:46.236Z,26.60
2019-04-23T15:15:12.707Z,26.70
2019-04-23T15:16:54.880Z,26.70
2019-04-23T15:18:25.289Z,26.90
2019-04-23T15:19:55.081Z,27.00
2019-04-23T15:21:47.145Z,27.10
2019-04-23T15:23:33.441Z,27.20
2019-04-23T15:24:43.732Z,27.20
2019-04-23T15:27:01.760Z,27.30
2019-04-23T15:28:05.175Z,27.40
2019-04-23T15:29:02.873Z,27.50
2019-04-23T15:30:57.381Z,27.60
2019-04-23T15:32:35.048Z,27.60
2019-04-23T15:34:11.989Z,27.70
2019-04-23T15:35:53.352Z,27.70
2019-04-23T15:38:53.871Z,27.60
2019-04-23T15:42:08.776Z,27.50
2019-04-23T15:43:30.552Z,27.50
2019-04-23T15:45:01.583Z,27.40
2019-04-23T15:48:15.601Z,27.20
2019-04-23T15:49:45.811Z,27.10
2019-04-23T15:51:30.950Z,27.00
2019-04-23T15:54:25.298Z,26.90
2019-04-23T15:56:13.731Z,26.80
2019-04-23T15:57:54.403Z,26.70
2019-04-23T16:00:55.816Z,26.60
2019-04-23T16:01:49.044Z,26.50
2019-04-23T16:03:22.154Z,26.40
2019-04-23T16:04:56.067Z,26.30
2019-04-23T16:06:32.306Z,26.20
2019-04-23T16:08:31.006Z,26.10
2019-04-23T16:10:08.967Z,26.10
2019-04-23T16:11:46.988Z,26.00
2019-04-23T16:13:19.974Z,25.90
2019-04-23T16:14:47.915Z,25.80
2019-04-23T16:16:26.194Z,25.70
2019-04-23T16:18:03.898Z,25.60
2019-04-23T16:19:29.099Z,25.50
2019-04-23T16:21:10.494Z,25.50
2019-04-23T16:22:38.272Z,25.40
2019-04-23T16:24:13.408Z,25.30
2019-04-23T16:25:44.372Z,25.30
2019-04-23T16:29:19.043Z,25.20
2019-04-23T16:30:25.755Z,25.20
2019-04-23T16:32:18.587Z,25.10
2019-04-23T16:33:33.246Z,25.10
2019-04-23T16:35:17.958Z,25.10
2019-04-23T16:36:48.599Z,25.10
2019-04-23T16:38:36.655Z,25.00
2019-04-23T16:40:01.475Z,25.00
2019-04-23T16:41:34.492Z,25.00
2019-04-23T16:43:08.618Z,24.90
2019-04-23T16:44:49.999Z,24.90
2019-04-23T16:48:07.462Z,24.80
2019-04-23T16:49:36.382Z,24.80
2019-04-23T16:51:27.849Z,24.70
2019-04-23T16:53:05.207Z,24.60
2019-04-23T16:54:33.154Z,24.60
2019-04-23T16:56:13.104Z,24.50
2019-04-23T16:57:45.961Z,24.50
2019-04-23T16:59:24.163Z,24.40
2019-04-23T17:02:19.814Z,24.40
2019-04-23T17:03:56.408Z,24.30
2019-04-23T17:05:34.083Z,24.30
2019-04-23T17:07:02.330Z,24.30
2019-04-23T17:10:12.665Z,24.20
2019-04-23T17:11:41.835Z,24.20
2019-04-23T17:13:18.359Z,24.10
2019-04-23T17:14:54.481Z,24.10
2019-04-23T17:16:32.331Z,24.00
2019-04-23T17:18:03.547Z,24.00
2019-04-23T17:19:54.693Z,23.90
2019-04-23T17:21:11.779Z,23.90
2019-04-23T17:26:19.030Z,23.70
2019-04-23T17:27:48.566Z,23.70
2019-04-23T17:29:24.836Z,23.60
2019-04-23T17:31:03.338Z,23.60
2019-04-23T17:32:23.609Z,23.50
2019-04-23T17:34:18.265Z,23.50
2019-04-23T17:35:44.934Z,23.40
2019-04-23T17:37:21.483Z,23.40
2019-04-23T17:38:55.492Z,23.30
2019-04-23T17:40:24.571Z,23.30
2019-04-23T17:42:18.505Z,23.20
2019-04-23T17:43:33.150Z,23.20
2019-04-23T17:46:45.007Z,23.20
2019-04-23T17:50:00.150Z,23.10
2019-04-23T17:51:19.760Z,23.00
2019-04-23T17:53:05.017Z,22.90
2019-04-23T17:54:34.304Z,22.90
2019-04-23T17:56:27.304Z,22.80
2019-04-23T18:05:29.140Z,22.40
2019-04-23T18:07:19.392Z,22.40
2019-04-23T18:08:41.315Z,22.30
2019-04-23T18:10:22.916Z,22.30
2019-04-23T18:13:22.523Z,22.20
2019-04-23T18:14:52.797Z,22.20
2019-04-23T18:16:36.967Z,22.10
2019-04-23T18:18:02.339Z,22.10
2019-04-23T18:19:30.514Z,22.10
2019-04-23T18:21:21.261Z,22.00
2019-04-23T18:26:01.930Z,21.90
2019-04-23T18:27:23.596Z,21.80
2019-04-23T18:29:06.963Z,21.80
2019-04-23T18:30:32.090Z,21.70
2019-04-23T18:32:16.121Z,21.70
2019-04-23T18:34:05.294Z,21.70
2019-04-23T18:36:53.771Z,21.60
2019-04-23T18:38:33.081Z,21.60
2019-04-23T18:40:10.640Z,21.60
2019-04-23T18:41:35.153Z,21.50
2019-04-23T18:43:11.626Z,21.50
2019-04-23T18:44:48.176Z,21.40
2019-04-23T18:49:35.525Z,21.30
2019-04-23T18:51:05.188Z,21.20
2019-04-23T18:52:45.936Z,21.20
2019-04-23T18:53:58.717Z,21.20
2019-04-23T18:55:54.421Z,21.10
2019-04-23T18:57:15.538Z,21.10
2019-04-23T19:00:37.016Z,21.00
2019-04-23T19:02:05.129Z,21.00
2019-04-23T19:03:37.538Z,21.00
2019-04-23T19:05:18.606Z,20.90
2019-04-23T19:06:36.938Z,20.90
2019-04-23T19:08:49.123Z,20.90
2019-04-23T19:10:11.703Z,20.90
2019-04-23T19:11:37.184Z,20.90
2019-04-23T19:12:56.972Z,20.80
2019-04-23T19:14:52.251Z,20.80
2019-04-23T19:15:53.084Z,20.80
2019-04-23T19:21:08.057Z,20.70
2019-04-23T19:25:25.954Z,20.60
2019-04-23T19:30:14.068Z,20.60
2019-04-23T19:31:55.620Z,20.60
2019-04-23T19:33:29.100Z,20.50
2019-04-23T19:34:56.329Z,20.50
2019-04-23T19:36:40.305Z,20.50
2019-04-23T19:38:01.440Z,20.50
2019-04-23T19:39:48.068Z,20.40
2019-04-23T19:41:10.751Z,20.40
2019-04-23T19:42:52.264Z,20.40
2019-04-23T19:45:59.921Z,20.40
2019-04-23T19:47:38.533Z,20.30
2019-04-23T19:49:19.244Z,20.30
2019-04-23T19:50:40.635Z,20.30
2019-04-23T19:52:07.521Z,20.20
2019-04-23T19:54:12.773Z,20.20
2019-04-23T19:55:16.936Z,20.20
2019-04-23T19:56:55.256Z,20.20
2019-04-23T19:58:38.396Z,20.10
2019-04-23T20:00:05.606Z,20.10
2019-04-23T20:01:41.615Z,20.10
2019-04-23T20:04:45.996Z,20.00
2019-04-23T20:06:48.489Z,20.00
2019-04-23T20:08:06.308Z,19.90
2019-04-23T20:09:46.150Z,19.90
2019-04-23T20:11:04.496Z,19.90
2019-04-23T20:12:45.948Z,19.80
2019-04-23T20:14:09.376Z,19.80
2019-04-23T20:15:59.709Z,19.70
2019-04-23T20:18:57.721Z,19.70
2019-04-23T20:20:36.409Z,19.70
2019-04-23T20:22:17.113Z,19.60
2019-04-23T20:26:51.445Z,19.60
2019-04-23T20:28:52.403Z,19.60
2019-04-23T20:30:14.415Z,19.50
2019-04-23T20:32:57.975Z,19.50
2019-04-23T20:33:51.681Z,19.50
2019-04-23T20:34:49.799Z,19.40
2019-04-23T20:36:21.407Z,19.50
2019-04-23T20:39:21.424Z,19.40
2019-04-23T20:41:02.886Z,19.40
2019-04-23T20:42:27.255Z,19.40
2019-04-23T20:44:11.856Z,19.30
2019-04-23T20:47:15.985Z,19.30
2019-04-23T20:48:53.856Z,19.30
2019-04-23T20:50:19.153Z,19.30
2019-04-23T20:52:04.685Z,19.20
2019-04-23T20:53:31.053Z,19.30
2019-04-23T20:55:08.430Z,19.20
2019-04-23T20:56:45.520Z,19.20
2019-04-23T20:58:09.510Z,19.20
2019-04-23T20:59:55.982Z,19.20
2019-04-23T21:01:26.952Z,19.20
2019-04-23T21:04:39.675Z,19.10
2019-04-23T21:06:07.155Z,19.10
2019-04-23T21:09:33.486Z,19.10
2019-04-23T21:10:56.859Z,19.10
2019-04-23T21:12:45.640Z,19.10
2019-04-23T21:15:34.897Z,19.10
2019-04-23T21:17:07.425Z,19.10
2019-04-23T21:18:44.433Z,19.00
2019-04-23T21:20:24.424Z,19.10
2019-04-23T21:21:53.719Z,19.00
2019-04-23T21:23:21.139Z,19.00
2019-04-23T21:26:35.436Z,19.00
2019-04-23T21:28:25.066Z,19.00
2019-04-23T21:29:56.934Z,19.00
2019-04-23T21:31:35.025Z,19.00
2019-04-23T21:32:59.027Z,19.00
2019-04-23T21:34:28.764Z,19.00
2019-04-23T21:37:46.256Z,18.90
2019-04-23T21:40:59.158Z,18.90
2019-04-23T21:42:21.040Z,18.90
2019-04-23T21:44:10.461Z,18.90
2019-04-23T21:45:42.938Z,18.90
2019-04-23T21:47:11.386Z,18.80
2019-04-23T21:49:03.294Z,18.90
2019-04-23T21:51:56.487Z,18.80
2019-04-23T21:53:26.085Z,18.80
2019-04-23T21:55:03.785Z,18.80
2019-04-23T21:56:39.642Z,18.80
2019-04-23T21:59:44.701Z,18.70
2019-04-23T22:02:57.399Z,18.70
2019-04-23T22:04:35.762Z,18.70
2019-04-23T22:06:06.117Z,18.70
2019-04-23T22:07:45.997Z,18.70
2019-04-23T22:11:08.802Z,18.70
2019-04-23T22:12:14.984Z,18.70
2019-04-23T22:15:34.322Z,18.70
2019-04-23T22:17:06.201Z,18.70
2019-04-23T22:18:34.803Z,18.60
2019-04-23T22:20:10.899Z,18.70
2019-04-23T22:23:21.957Z,18.60
2019-04-23T22:24:49.946Z,18.60
2019-04-23T22:26:28.986Z,18.60
2019-04-23T22:28:16.119Z,18.60
2019-04-23T22:30:03.658Z,18.60
2019-04-23T22:31:43.043Z,18.60
2019-04-23T22:33:21.349Z,18.60
2019-04-23T22:34:55.963Z,18.50
2019-04-23T22:36:23.491Z,18.50
2019-04-23T22:38:09.078Z,18.50
2019-04-23T22:39:31.753Z,18.50
2019-04-23T22:41:09.287Z,18.50
2019-04-23T22:47:25.208Z,18.50
2019-04-23T22:50:38.892Z,18.50
2019-04-23T22:52:11.284Z,18.40
2019-04-23T22:53:50.894Z,18.40
2019-04-23T22:55:12.752Z,18.40
2019-04-23T22:58:20.016Z,18.40
2019-04-23T23:00:08.421Z,18.40
2019-04-23T23:01:39.821Z,18.40
2019-04-23T23:03:13.375Z,18.40
2019-04-23T23:04:51.660Z,18.40
2019-04-23T23:07:55.990Z,18.40
2019-04-23T23:09:25.313Z,18.40
2019-04-23T23:10:56.957Z,18.40
2019-04-23T23:12:44.670Z,18.30
2019-04-23T23:15:45.009Z,18.30
2019-04-23T23:17:16.350Z,18.30
2019-04-23T23:18:49.152Z,18.30
2019-04-23T23:22:11.934Z,18.30
2019-04-23T23:25:20.570Z,18.30
2019-04-23T23:26:49.440Z,18.30
2019-04-23T23:30:00.738Z,18.30
2019-04-23T23:33:03.683Z,18.30
2019-04-23T23:34:43.033Z,18.30
2019-04-23T23:36:05.842Z,18.30
2019-04-23T23:37:42.122Z,18.30
2019-04-23T23:39:22.695Z,18.30
2019-04-23T23:40:56.851Z,18.30
2019-04-23T23:42:22.166Z,18.20
2019-04-23T23:44:20.911Z,18.20
2019-04-23T23:45:46.741Z,18.20
2019-04-23T23:48:42.140Z,18.20
2019-04-23T23:50:35.469Z,18.20
2019-04-23T23:51:49.521Z,18.20
2019-04-23T23:53:32.903Z,18.20
2019-04-23T23:55:07.836Z,18.20
2019-04-23T23:56:39.176Z,18.20
2019-04-23T23:58:15.015Z,18.20
2019-04-23T23:59:49.393Z,18.20
